Terminal Aerodrome Forecast
Issued by NWS Cleveland, OH

Home | Current Version | Previous Version | Graphics & Text | Print | Product List | Glossary On
Versions: 1 2 3 4 5 6 7 8 9 10 11 12 13 14 15 16 17 18 19 20 21
000
FTUS41 KCLE 242300
TAFERI
TAF
KERI 242320Z 2500/2524 03008KT P6SM SCT040
     FM250100 14007KT P6SM BKN250
     FM251000 16006KT 6SM HZ SCT250
     FM251500 18006KT P6SM SCT250
     FM251700 34006KT P6SM BKN035=

USA.gov is the U.S. government's official web portal to all federal, state and local government web resources and services.